sensor_id;sensor_type;location;lat;lon;timestamp;P1;durP1;ratioP1;P2;durP2;ratioP2
76837;SDS011;65797;47.352;8.164;2023-12-22T00:00:31;2.50;;;0.70;;
76837;SDS011;65797;47.352;8.164;2023-12-22T00:02:57;0.80;;;0.60;;
76837;SDS011;65797;47.352;8.164;2023-12-22T00:05:24;1.40;;;0.80;;
76837;SDS011;65797;47.352;8.164;2023-12-22T00:07:51;1.33;;;0.70;;
76837;SDS011;65797;47.352;8.164;2023-12-22T00:10:16;1.83;;;0.73;;
76837;SDS011;65797;47.352;8.164;2023-12-22T00:12:42;2.20;;;0.70;;
76837;SDS011;65797;47.352;8.164;2023-12-22T00:15:08;1.27;;;0.60;;
76837;SDS011;65797;47.352;8.164;2023-12-22T00:17:33;0.80;;;0.80;;
76837;SDS011;65797;47.352;8.164;2023-12-22T00:19:59;1.60;;;0.60;;
76837;SDS011;65797;47.352;8.164;2023-12-22T00:22:28;1.17;;;0.63;;
76837;SDS011;65797;47.352;8.164;2023-12-22T00:24:54;0.80;;;0.60;;
76837;SDS011;65797;47.352;8.164;2023-12-22T00:27:20;1.27;;;0.60;;
76837;SDS011;65797;47.352;8.164;2023-12-22T00:29:45;1.07;;;0.70;;
76837;SDS011;65797;47.352;8.164;2023-12-22T00:32:11;3.23;;;0.80;;
76837;SDS011;65797;47.352;8.164;2023-12-22T00:34:37;1.30;;;0.70;;
76837;SDS011;65797;47.352;8.164;2023-12-22T00:37:03;1.70;;;0.80;;
76837;SDS011;65797;47.352;8.164;2023-12-22T00:39:29;2.40;;;0.90;;
76837;SDS011;65797;47.352;8.164;2023-12-22T00:41:56;2.43;;;0.80;;
76837;SDS011;65797;47.352;8.164;2023-12-22T00:44:22;1.37;;;0.77;;
76837;SDS011;65797;47.352;8.164;2023-12-22T00:46:48;0.67;;;0.67;;
76837;SDS011;65797;47.352;8.164;2023-12-22T00:49:14;0.63;;;0.60;;
76837;SDS011;65797;47.352;8.164;2023-12-22T00:51:40;1.90;;;0.60;;
76837;SDS011;65797;47.352;8.164;2023-12-22T00:54:06;3.23;;;0.80;;
76837;SDS011;65797;47.352;8.164;2023-12-22T00:56:32;0.50;;;0.50;;
76837;SDS011;65797;47.352;8.164;2023-12-22T00:58:57;0.67;;;0.67;;
76837;SDS011;65797;47.352;8.164;2023-12-22T01:01:23;0.80;;;0.60;;
76837;SDS011;65797;47.352;8.164;2023-12-22T01:03:49;0.90;;;0.90;;
76837;SDS011;65797;47.352;8.164;2023-12-22T01:06:14;2.87;;;0.60;;
76837;SDS011;65797;47.352;8.164;2023-12-22T01:08:40;1.43;;;0.70;;
76837;SDS011;65797;47.352;8.164;2023-12-22T01:11:06;0.97;;;0.70;;
76837;SDS011;65797;47.352;8.164;2023-12-22T01:13:31;1.00;;;0.90;;
76837;SDS011;65797;47.352;8.164;2023-12-22T01:15:57;1.67;;;1.00;;
76837;SDS011;65797;47.352;8.164;2023-12-22T01:18:23;1.60;;;0.70;;
76837;SDS011;65797;47.352;8.164;2023-12-22T01:20:51;6.30;;;1.00;;
76837;SDS011;65797;47.352;8.164;2023-12-22T01:23:16;1.73;;;0.80;;
76837;SDS011;65797;47.352;8.164;2023-12-22T01:25:42;5.80;;;0.93;;
76837;SDS011;65797;47.352;8.164;2023-12-22T01:28:08;2.70;;;0.87;;
76837;SDS011;65797;47.352;8.164;2023-12-22T01:30:34;4.50;;;0.90;;
76837;SDS011;65797;47.352;8.164;2023-12-22T01:33:00;5.73;;;1.10;;
76837;SDS011;65797;47.352;8.164;2023-12-22T01:35:26;3.57;;;0.87;;
76837;SDS011;65797;47.352;8.164;2023-12-22T01:37:52;6.83;;;0.83;;
76837;SDS011;65797;47.352;8.164;2023-12-22T01:40:19;6.10;;;1.17;;
76837;SDS011;65797;47.352;8.164;2023-12-22T01:42:45;6.70;;;1.20;;
76837;SDS011;65797;47.352;8.164;2023-12-22T01:45:11;1.63;;;1.00;;
76837;SDS011;65797;47.352;8.164;2023-12-22T01:47:37;6.30;;;1.17;;
76837;SDS011;65797;47.352;8.164;2023-12-22T01:50:03;1.77;;;0.80;;
76837;SDS011;65797;47.352;8.164;2023-12-22T01:52:30;4.23;;;1.30;;
76837;SDS011;65797;47.352;8.164;2023-12-22T01:54:55;6.33;;;1.20;;
76837;SDS011;65797;47.352;8.164;2023-12-22T01:57:21;1.23;;;0.70;;
76837;SDS011;65797;47.352;8.164;2023-12-22T01:59:47;1.07;;;0.80;;
76837;SDS011;65797;47.352;8.164;2023-12-22T02:02:14;1.53;;;0.83;;
76837;SDS011;65797;47.352;8.164;2023-12-22T02:04:41;0.70;;;0.70;;
76837;SDS011;65797;47.352;8.164;2023-12-22T02:07:08;1.43;;;0.93;;
76837;SDS011;65797;47.352;8.164;2023-12-22T02:09:35;2.93;;;1.10;;
76837;SDS011;65797;47.352;8.164;2023-12-22T02:12:02;2.60;;;1.10;;
76837;SDS011;65797;47.352;8.164;2023-12-22T02:14:28;1.23;;;0.70;;
76837;SDS011;65797;47.352;8.164;2023-12-22T03:45:16;1.07;;;0.70;;
76837;SDS011;65797;47.352;8.164;2023-12-22T03:47:41;1.93;;;0.80;;
76837;SDS011;65797;47.352;8.164;2023-12-22T03:50:07;3.07;;;0.50;;
76837;SDS011;65797;47.352;8.164;2023-12-22T03:52:33;0.60;;;0.60;;
76837;SDS011;65797;47.352;8.164;2023-12-22T04:23:28;2.80;;;0.70;;
76837;SDS011;65797;47.352;8.164;2023-12-22T04:25:54;2.00;;;0.73;;
76837;SDS011;65797;47.352;8.164;2023-12-22T04:28:21;4.63;;;1.77;;
76837;SDS011;65797;47.352;8.164;2023-12-22T04:30:46;3.80;;;1.20;;
76837;SDS011;65797;47.352;8.164;2023-12-22T04:33:12;6.30;;;0.70;;
76837;SDS011;65797;47.352;8.164;2023-12-22T04:35:37;2.80;;;1.00;;
76837;SDS011;65797;47.352;8.164;2023-12-22T04:43:14;2.30;;;1.03;;
76837;SDS011;65797;47.352;8.164;2023-12-22T04:48:15;3.43;;;1.33;;
76837;SDS011;65797;47.352;8.164;2023-12-22T04:50:41;5.97;;;1.30;;
76837;SDS011;65797;47.352;8.164;2023-12-22T04:53:06;9.40;;;1.40;;
76837;SDS011;65797;47.352;8.164;2023-12-22T04:58:07;3.90;;;1.13;;
76837;SDS011;65797;47.352;8.164;2023-12-22T05:00:33;15.00;;;1.83;;
76837;SDS011;65797;47.352;8.164;2023-12-22T05:02:59;9.10;;;2.20;;
76837;SDS011;65797;47.352;8.164;2023-12-22T05:05:24;4.20;;;1.40;;
76837;SDS011;65797;47.352;8.164;2023-12-22T05:07:50;5.27;;;1.10;;
76837;SDS011;65797;47.352;8.164;2023-12-22T05:10:16;3.27;;;1.73;;
76837;SDS011;65797;47.352;8.164;2023-12-22T05:12:41;9.20;;;1.10;;
76837;SDS011;65797;47.352;8.164;2023-12-22T05:15:07;9.07;;;1.73;;
76837;SDS011;65797;47.352;8.164;2023-12-22T05:17:33;5.20;;;1.30;;
76837;SDS011;65797;47.352;8.164;2023-12-22T05:19:59;4.83;;;1.30;;
76837;SDS011;65797;47.352;8.164;2023-12-22T05:22:25;4.23;;;1.00;;
76837;SDS011;65797;47.352;8.164;2023-12-22T05:24:51;11.40;;;1.73;;
76837;SDS011;65797;47.352;8.164;2023-12-22T05:27:17;5.03;;;1.50;;
76837;SDS011;65797;47.352;8.164;2023-12-22T05:29:43;4.20;;;1.20;;
76837;SDS011;65797;47.352;8.164;2023-12-22T05:32:09;4.47;;;1.50;;
76837;SDS011;65797;47.352;8.164;2023-12-22T05:34:35;9.00;;;1.13;;
76837;SDS011;65797;47.352;8.164;2023-12-22T05:37:01;8.43;;;1.50;;
76837;SDS011;65797;47.352;8.164;2023-12-22T05:39:27;5.43;;;1.10;;
76837;SDS011;65797;47.352;8.164;2023-12-22T05:41:52;4.10;;;1.10;;
76837;SDS011;65797;47.352;8.164;2023-12-22T05:44:18;10.27;;;1.33;;
76837;SDS011;65797;47.352;8.164;2023-12-22T05:46:44;2.63;;;0.80;;
76837;SDS011;65797;47.352;8.164;2023-12-22T05:49:09;4.87;;;1.20;;
76837;SDS011;65797;47.352;8.164;2023-12-22T05:51:36;3.43;;;1.00;;
76837;SDS011;65797;47.352;8.164;2023-12-22T05:54:03;3.07;;;1.20;;
76837;SDS011;65797;47.352;8.164;2023-12-22T05:56:29;4.93;;;1.40;;
76837;SDS011;65797;47.352;8.164;2023-12-22T05:58:55;8.70;;;1.30;;
76837;SDS011;65797;47.352;8.164;2023-12-22T06:01:20;4.70;;;1.20;;
76837;SDS011;65797;47.352;8.164;2023-12-22T06:03:46;4.83;;;1.90;;
76837;SDS011;65797;47.352;8.164;2023-12-22T06:06:13;2.90;;;1.27;;
76837;SDS011;65797;47.352;8.164;2023-12-22T06:08:39;3.00;;;1.17;;
76837;SDS011;65797;47.352;8.164;2023-12-22T06:11:05;4.30;;;1.23;;
76837;SDS011;65797;47.352;8.164;2023-12-22T06:13:31;6.23;;;1.10;;
76837;SDS011;65797;47.352;8.164;2023-12-22T06:15:56;5.17;;;1.23;;
76837;SDS011;65797;47.352;8.164;2023-12-22T06:18:22;3.27;;;1.30;;
76837;SDS011;65797;47.352;8.164;2023-12-22T06:20:48;7.03;;;1.80;;
76837;SDS011;65797;47.352;8.164;2023-12-22T06:23:15;6.37;;;1.47;;
76837;SDS011;65797;47.352;8.164;2023-12-22T06:25:41;9.63;;;1.57;;
76837;SDS011;65797;47.352;8.164;2023-12-22T16:49:14;1.70;;;0.70;;
76837;SDS011;65797;47.352;8.164;2023-12-22T17:07:12;0.70;;;0.70;;
76837;SDS011;65797;47.352;8.164;2023-12-22T20:58:16;0.50;;;0.50;;
76837;SDS011;65797;47.352;8.164;2023-12-22T21:00:42;0.60;;;0.60;;
76837;SDS011;65797;47.352;8.164;2023-12-22T21:03:10;0.70;;;0.50;;
76837;SDS011;65797;47.352;8.164;2023-12-22T21:05:40;0.57;;;0.57;;
76837;SDS011;65797;47.352;8.164;2023-12-22T21:08:07;0.70;;;0.70;;
76837;SDS011;65797;47.352;8.164;2023-12-22T21:10:34;0.50;;;0.50;;
76837;SDS011;65797;47.352;8.164;2023-12-22T21:13:01;0.40;;;0.40;;
